createdAt,value
2023-04-02T00:01:21.483Z,7.19
2023-04-02T00:04:07.277Z,7.26
2023-04-02T00:06:40.646Z,7.18
2023-04-02T00:08:50.920Z,7.05
2023-04-02T00:11:02.324Z,7.10
2023-04-02T00:13:26.359Z,7.09
2023-04-02T00:15:34.918Z,7.01
2023-04-02T00:17:42.870Z,6.91
2023-04-02T00:19:57.301Z,7.00
2023-04-02T00:22:08.641Z,6.98
2023-04-02T00:24:20.624Z,7.09
2023-04-02T00:26:37.034Z,7.05
2023-04-02T00:28:47.837Z,7.02
2023-04-02T00:30:58.307Z,6.99
2023-04-02T00:33:06.332Z,6.91
2023-04-02T00:35:19.607Z,6.93
2023-04-02T00:37:39.120Z,6.82
2023-04-02T00:39:47.414Z,6.91
2023-04-02T00:42:05.274Z,6.95
2023-04-02T00:44:22.280Z,6.99
2023-04-02T00:46:34.785Z,7.01
2023-04-02T00:48:47.819Z,6.94
2023-04-02T00:50:58.101Z,6.94
2023-04-02T00:53:12.928Z,7.10
2023-04-02T00:55:24.712Z,7.12
2023-04-02T00:57:34.427Z,6.93
2023-04-02T00:59:56.397Z,7.01
2023-04-02T01:02:26.770Z,7.00
2023-04-02T01:04:37.640Z,6.96
2023-04-02T01:06:46.363Z,6.92
2023-04-02T01:09:12.352Z,7.05
2023-04-02T01:11:35.379Z,7.17
2023-04-02T01:13:53.041Z,7.03
2023-04-02T01:16:12.225Z,7.00
2023-04-02T01:18:52.588Z,7.05
2023-04-02T01:21:28.437Z,6.94
2023-04-02T01:23:42.383Z,6.98
2023-04-02T01:25:57.741Z,7.03
2023-04-02T01:28:13.261Z,7.18
2023-04-02T01:30:24.283Z,7.16
2023-04-02T01:32:34.067Z,7.17
2023-04-02T01:34:44.916Z,7.15
2023-04-02T01:37:06.826Z,7.25
2023-04-02T01:39:25.393Z,7.19
2023-04-02T01:41:41.048Z,7.12
2023-04-02T01:43:55.346Z,7.03
2023-04-02T01:46:10.395Z,7.03
2023-04-02T01:48:24.966Z,7.01
2023-04-02T01:50:39.954Z,7.04
2023-04-02T01:52:50.205Z,7.04
2023-04-02T01:54:59.874Z,7.02
2023-04-02T01:57:08.811Z,7.07
2023-04-02T01:59:19.028Z,6.96
2023-04-02T02:01:35.859Z,7.16
2023-04-02T02:03:45.778Z,6.96
2023-04-02T02:05:54.924Z,7.02
2023-04-02T02:08:08.165Z,6.96
2023-04-02T02:10:18.336Z,7.04
2023-04-02T02:12:27.960Z,7.08
2023-04-02T02:14:36.965Z,7.07
2023-04-02T02:16:50.509Z,6.98
2023-04-02T02:19:02.370Z,6.92
2023-04-02T02:21:13.343Z,6.89
2023-04-02T02:23:22.572Z,6.92
2023-04-02T02:25:34.381Z,6.82
2023-04-02T02:28:02.937Z,6.79
2023-04-02T02:30:18.567Z,6.90
2023-04-02T02:32:33.410Z,6.97
2023-04-02T02:34:52.233Z,6.92
2023-04-02T02:37:05.728Z,7.07
2023-04-02T02:39:18.858Z,7.08
2023-04-02T02:41:37.105Z,6.94
2023-04-02T02:43:51.779Z,7.07
2023-04-02T02:46:02.243Z,7.12
2023-04-02T02:48:18.589Z,7.18
2023-04-02T02:50:31.508Z,7.15
2023-04-02T02:52:42.605Z,7.15
2023-04-02T02:54:57.646Z,7.17
2023-04-02T02:57:13.107Z,7.15
2023-04-02T02:59:23.511Z,7.03
2023-04-02T03:01:34.071Z,7.17
2023-04-02T03:03:48.655Z,7.02
2023-04-02T03:06:02.016Z,7.05
2023-04-02T03:08:16.638Z,7.05
2023-04-02T03:10:32.663Z,7.03
2023-04-02T03:12:50.177Z,7.01
2023-04-02T03:15:05.766Z,7.11
2023-04-02T03:17:19.456Z,7.21
2023-04-02T03:19:36.726Z,7.20
2023-04-02T03:21:53.520Z,7.31
2023-04-02T03:24:06.914Z,7.21
2023-04-02T03:26:23.026Z,7.24
2023-04-02T03:28:35.349Z,7.11
2023-04-02T03:30:47.611Z,7.13
2023-04-02T03:33:03.828Z,7.11
2023-04-02T03:35:23.888Z,7.20
2023-04-02T03:37:38.233Z,7.30
2023-04-02T03:39:49.990Z,7.28
2023-04-02T03:42:02.242Z,7.25
2023-04-02T03:44:23.780Z,7.27
2023-04-02T03:46:37.411Z,7.22
2023-04-02T03:48:49.992Z,7.18
2023-04-02T03:51:06.077Z,7.09
2023-04-02T03:53:15.642Z,7.15
2023-04-02T03:55:29.172Z,7.14
2023-04-02T03:57:42.201Z,7.14
2023-04-02T03:59:59.095Z,7.20
2023-04-02T04:02:16.461Z,7.11
2023-04-02T04:04:28.609Z,7.16
2023-04-02T04:06:44.052Z,7.09
2023-04-02T04:08:57.453Z,7.18
2023-04-02T04:11:11.481Z,7.05
2023-04-02T04:13:25.250Z,7.14
2023-04-02T04:15:38.347Z,7.17
2023-04-02T04:17:56.956Z,7.07
2023-04-02T04:20:22.115Z,7.19
2023-04-02T04:22:34.819Z,7.18
2023-04-02T04:24:54.375Z,7.13
2023-04-02T04:27:09.751Z,6.99
2023-04-02T04:29:38.906Z,6.97
2023-04-02T04:31:50.709Z,6.97
2023-04-02T04:34:05.439Z,6.96
2023-04-02T04:36:29.058Z,7.02
2023-04-02T04:38:59.655Z,7.03
2023-04-02T04:41:18.276Z,7.05
2023-04-02T04:43:36.673Z,7.03
2023-04-02T04:45:49.911Z,6.97
2023-04-02T04:48:06.232Z,6.98
2023-04-02T04:50:22.165Z,7.00
2023-04-02T04:52:36.572Z,6.96
2023-04-02T04:54:49.390Z,6.99
2023-04-02T04:57:06.114Z,6.95
2023-04-02T04:59:22.081Z,7.01
2023-04-02T05:01:36.677Z,7.05
2023-04-02T05:03:56.458Z,7.12
2023-04-02T05:06:11.415Z,7.07
2023-04-02T05:08:29.470Z,7.09
2023-04-02T05:10:48.143Z,7.14
2023-04-02T05:13:02.753Z,7.15
2023-04-02T05:15:20.966Z,7.03
2023-04-02T05:17:34.470Z,7.12
2023-04-02T05:19:49.589Z,7.30
2023-04-02T05:22:02.832Z,7.20
2023-04-02T05:24:44.188Z,7.30
2023-04-02T05:26:59.361Z,7.27
2023-04-02T05:29:17.696Z,7.36
2023-04-02T05:31:29.192Z,7.27
2023-04-02T05:33:39.562Z,7.38
2023-04-02T05:35:54.312Z,7.33
2023-04-02T05:38:04.599Z,7.30
2023-04-02T05:40:18.263Z,7.44
2023-04-02T05:42:33.745Z,7.19
2023-04-02T05:45:01.863Z,7.24
2023-04-02T05:47:17.818Z,7.07
2023-04-02T05:49:32.351Z,7.19
2023-04-02T05:51:45.522Z,7.20
2023-04-02T05:54:02.200Z,7.37
2023-04-02T05:56:19.707Z,7.41
2023-04-02T05:58:37.762Z,7.40
2023-04-02T06:01:17.728Z,7.48
2023-04-02T06:03:37.593Z,7.48
2023-04-02T06:05:49.520Z,7.45
2023-04-02T06:08:04.563Z,7.48
2023-04-02T06:10:17.628Z,7.53
2023-04-02T06:12:37.130Z,7.47
2023-04-02T06:14:53.338Z,7.57
2023-04-02T06:17:05.516Z,7.65
2023-04-02T06:19:22.671Z,7.62
2023-04-02T06:21:31.708Z,7.70
2023-04-02T06:23:45.794Z,7.83
2023-04-02T06:25:58.830Z,7.92
2023-04-02T06:28:12.242Z,7.93
2023-04-02T06:30:38.739Z,7.92
2023-04-02T06:32:47.431Z,8.00
2023-04-02T06:34:58.005Z,8.03
2023-04-02T06:37:16.012Z,8.04
2023-04-02T06:39:29.241Z,8.01
2023-04-02T06:41:39.908Z,8.20
2023-04-02T06:44:13.817Z,8.01
2023-04-02T06:46:47.675Z,8.00
2023-04-02T06:49:15.225Z,8.03
2023-04-02T06:51:28.704Z,7.99
2023-04-02T06:53:39.970Z,8.18
2023-04-02T06:55:53.821Z,8.11
2023-04-02T06:58:06.774Z,8.22
2023-04-02T07:00:28.418Z,8.21
2023-04-02T07:02:43.047Z,8.28
2023-04-02T07:04:52.803Z,8.37
2023-04-02T07:07:01.956Z,8.17
2023-04-02T07:09:13.544Z,8.11
2023-04-02T07:11:26.351Z,8.35
2023-04-02T07:13:38.504Z,8.58
2023-04-02T07:15:47.914Z,8.65
2023-04-02T07:17:59.780Z,8.85
2023-04-02T07:20:11.996Z,8.90
2023-04-02T07:22:20.998Z,9.01
2023-04-02T07:24:36.122Z,8.91
2023-04-02T07:26:44.033Z,8.96
2023-04-02T07:28:52.757Z,8.98
2023-04-02T07:31:00.768Z,8.92
2023-04-02T07:33:16.679Z,8.49
2023-04-02T07:35:24.536Z,8.33
2023-04-02T07:37:32.909Z,8.61
2023-04-02T07:39:41.242Z,8.80
2023-04-02T07:42:18.160Z,8.83
2023-04-02T07:44:26.734Z,8.93
2023-04-02T07:46:35.334Z,9.21
2023-04-02T07:48:49.618Z,9.26
2023-04-02T07:50:57.763Z,9.24
2023-04-02T07:53:07.272Z,9.34
2023-04-02T07:55:16.839Z,9.23
2023-04-02T07:57:24.795Z,9.27
2023-04-02T07:59:33.077Z,9.38
2023-04-02T08:01:43.264Z,9.61
2023-04-02T08:03:54.935Z,9.31
2023-04-02T08:06:03.221Z,9.04
2023-04-02T08:08:11.509Z,9.29
2023-04-02T08:10:19.661Z,9.70
2023-04-02T08:12:28.132Z,9.76
2023-04-02T08:14:36.124Z,9.86
2023-04-02T08:16:52.548Z,9.94
2023-04-02T08:19:06.059Z,9.75
2023-04-02T08:21:16.648Z,9.87
2023-04-02T08:23:25.523Z,9.88
2023-04-02T08:25:34.940Z,10.07
2023-04-02T08:27:43.172Z,10.08
2023-04-02T08:29:51.924Z,10.22
2023-04-02T08:31:59.887Z,10.35
2023-04-02T08:34:10.710Z,10.35
2023-04-02T08:36:20.046Z,10.52
2023-04-02T08:38:28.378Z,10.65
2023-04-02T08:40:38.864Z,10.64
2023-04-02T08:42:53.622Z,10.55
2023-04-02T08:45:24.180Z,10.66
2023-04-02T08:47:37.395Z,10.84
2023-04-02T08:49:53.784Z,11.03
2023-04-02T08:52:02.619Z,11.18
2023-04-02T08:54:17.955Z,11.30
2023-04-02T08:56:32.038Z,11.21
2023-04-02T08:58:44.440Z,11.39
2023-04-02T09:00:57.019Z,11.31
2023-04-02T09:03:11.879Z,11.39
2023-04-02T09:05:29.216Z,11.07
2023-04-02T09:07:40.059Z,10.37
2023-04-02T09:09:51.568Z,10.05
2023-04-02T09:12:04.605Z,10.62
2023-04-02T09:14:20.832Z,10.80
2023-04-02T09:16:43.745Z,10.40
2023-04-02T09:18:55.891Z,10.59
2023-04-02T09:21:30.227Z,10.24
2023-04-02T09:23:38.302Z,10.05
2023-04-02T09:26:00.999Z,10.14
2023-04-02T09:28:14.497Z,10.06
2023-04-02T09:30:33.239Z,10.02
2023-04-02T09:32:52.196Z,9.81
2023-04-02T09:35:25.575Z,10.04
2023-04-02T09:37:38.483Z,9.79
2023-04-02T09:39:46.954Z,9.92
2023-04-02T09:42:05.498Z,9.69
2023-04-02T09:44:25.277Z,9.68
2023-04-02T09:46:35.223Z,9.48
2023-04-02T09:48:48.200Z,9.50
2023-04-02T09:51:08.698Z,9.68
2023-04-02T09:53:39.100Z,9.60
2023-04-02T09:55:48.785Z,9.79
2023-04-02T09:58:14.717Z,10.05
2023-04-02T10:00:41.549Z,10.20
2023-04-02T10:03:04.412Z,10.31
2023-04-02T10:05:30.135Z,10.25
2023-04-02T10:07:50.832Z,10.32
2023-04-02T10:10:04.531Z,10.31
2023-04-02T10:12:17.498Z,10.39
2023-04-02T10:14:34.651Z,10.56
2023-04-02T10:16:48.343Z,10.84
2023-04-02T10:19:01.202Z,11.09
2023-04-02T10:21:12.397Z,11.04
2023-04-02T10:23:22.148Z,11.05
2023-04-02T10:25:43.508Z,11.23
2023-04-02T10:28:00.832Z,11.48
2023-04-02T10:30:19.389Z,11.87
2023-04-02T10:32:36.809Z,11.79
2023-04-02T10:34:52.301Z,11.97
2023-04-02T10:37:12.528Z,12.00
2023-04-02T10:39:25.224Z,12.11
2023-04-02T10:41:44.468Z,12.11
2023-04-02T10:44:37.060Z,12.27
2023-04-02T10:46:51.806Z,12.44
2023-04-02T10:49:09.351Z,12.51
2023-04-02T10:51:31.452Z,12.46
2023-04-02T10:53:49.379Z,12.33
2023-04-02T10:56:03.680Z,12.17
2023-04-02T10:58:19.748Z,12.57
2023-04-02T11:00:30.509Z,12.74
2023-04-02T11:02:46.027Z,12.85
2023-04-02T11:04:59.334Z,12.98
2023-04-02T11:07:15.020Z,12.83
2023-04-02T11:09:28.097Z,12.63
2023-04-02T11:11:41.728Z,12.65
2023-04-02T11:14:00.901Z,12.66
2023-04-02T11:16:09.033Z,12.44
2023-04-02T11:18:27.033Z,12.57
2023-04-02T11:21:00.723Z,12.36
2023-04-02T11:23:13.820Z,12.30
2023-04-02T11:25:25.653Z,12.45
2023-04-02T11:27:35.899Z,12.21
2023-04-02T11:29:50.110Z,12.28
2023-04-02T11:32:29.877Z,12.21
2023-04-02T11:35:07.988Z,11.98
2023-04-02T11:37:35.365Z,11.59
2023-04-02T11:39:59.502Z,11.82
2023-04-02T11:42:25.202Z,11.96
2023-04-02T11:44:33.884Z,12.16
2023-04-02T11:46:49.165Z,12.00
2023-04-02T11:48:58.501Z,12.00
2023-04-02T11:51:16.039Z,12.06
2023-04-02T11:53:30.051Z,12.22
2023-04-02T11:55:39.164Z,12.18
2023-04-02T11:58:00.718Z,12.32
2023-04-02T12:00:36.659Z,12.40
2023-04-02T12:02:59.838Z,12.23
2023-04-02T12:05:17.804Z,12.37
2023-04-02T12:07:37.722Z,12.41
2023-04-02T12:09:51.794Z,12.10
2023-04-02T12:12:02.481Z,12.16
2023-04-02T12:14:44.272Z,12.52
2023-04-02T12:16:53.866Z,12.74
2023-04-02T12:19:05.546Z,12.66
2023-04-02T12:21:19.387Z,12.50
2023-04-02T12:23:31.948Z,12.61
2023-04-02T12:25:41.351Z,12.32
2023-04-02T12:27:49.713Z,12.72
2023-04-02T12:29:59.052Z,12.48
2023-04-02T12:32:07.059Z,12.73
2023-04-02T12:34:23.076Z,12.70
2023-04-02T12:36:32.032Z,12.80
2023-04-02T12:38:48.234Z,12.40
2023-04-02T12:40:57.962Z,12.67
2023-04-02T12:43:05.881Z,12.68
2023-04-02T12:45:27.951Z,12.47
2023-04-02T12:47:37.594Z,12.19
2023-04-02T12:49:49.518Z,12.52
2023-04-02T12:51:59.129Z,12.59
2023-04-02T12:54:08.237Z,12.83
2023-04-02T12:56:22.786Z,12.75
2023-04-02T12:58:39.766Z,12.32
2023-04-02T13:00:48.091Z,12.53
2023-04-02T13:03:03.944Z,12.35
2023-04-02T13:05:16.690Z,12.13
2023-04-02T13:07:30.219Z,11.89
2023-04-02T13:09:40.774Z,12.15
2023-04-02T13:11:49.025Z,12.30
2023-04-02T13:14:04.331Z,12.39
2023-04-02T13:16:29.714Z,12.73
2023-04-02T13:18:39.605Z,12.99
2023-04-02T13:20:59.032Z,12.74
2023-04-02T13:23:28.174Z,12.78
2023-04-02T13:25:39.603Z,12.79
2023-04-02T13:27:48.101Z,12.40
2023-04-02T13:29:56.162Z,12.36
2023-04-02T13:32:05.871Z,12.05
2023-04-02T13:34:13.717Z,11.94
2023-04-02T13:36:24.514Z,11.54
2023-04-02T13:38:32.448Z,10.99
2023-04-02T13:40:41.594Z,10.88
2023-04-02T13:42:50.106Z,10.52
2023-04-02T13:44:58.256Z,10.43
2023-04-02T13:47:06.646Z,10.36
2023-04-02T13:49:14.902Z,10.37
2023-04-02T13:51:28.159Z,10.23
2023-04-02T13:53:42.674Z,10.17
2023-04-02T13:55:52.554Z,10.07
2023-04-02T13:58:01.089Z,9.98
2023-04-02T14:00:10.563Z,10.04
2023-04-02T14:02:21.351Z,9.87
2023-04-02T14:04:33.525Z,9.79
2023-04-02T14:07:09.620Z,9.87
2023-04-02T14:09:29.019Z,9.76
2023-04-02T14:11:49.584Z,9.64
2023-04-02T14:14:23.054Z,9.56
2023-04-02T14:16:46.742Z,9.38
2023-04-02T14:19:06.473Z,9.26
2023-04-02T14:21:21.315Z,9.33
2023-04-02T14:23:46.829Z,9.35
2023-04-02T14:26:06.686Z,9.37
2023-04-02T14:28:24.044Z,9.25
2023-04-02T14:30:42.731Z,9.26
2023-04-02T14:32:59.866Z,9.37
2023-04-02T14:35:20.771Z,9.26
2023-04-02T14:37:36.056Z,9.17
2023-04-02T14:39:56.633Z,9.21
2023-04-02T14:42:09.907Z,9.21
2023-04-02T14:44:21.893Z,9.25
2023-04-02T14:46:31.652Z,9.30
2023-04-02T14:49:20.466Z,9.32
2023-04-02T14:51:33.228Z,9.29
2023-04-02T14:53:55.772Z,9.25
2023-04-02T14:56:10.265Z,9.31
2023-04-02T14:58:21.951Z,9.57
2023-04-02T15:00:35.823Z,9.50
2023-04-02T15:02:47.099Z,9.34
2023-04-02T15:05:02.308Z,9.35
2023-04-02T15:07:19.105Z,9.18
2023-04-02T15:09:31.583Z,9.29
2023-04-02T15:11:46.632Z,9.52
2023-04-02T15:14:00.157Z,9.48
2023-04-02T15:16:14.270Z,9.60
2023-04-02T15:18:22.470Z,9.10
2023-04-02T15:20:40.489Z,9.31
2023-04-02T15:23:00.242Z,9.29
2023-04-02T15:25:24.000Z,9.21
2023-04-02T15:27:50.024Z,8.96
2023-04-02T15:30:06.386Z,9.05
2023-04-02T15:32:26.921Z,9.13
2023-04-02T15:34:38.602Z,8.88
2023-04-02T15:37:03.482Z,8.86
2023-04-02T15:39:34.838Z,8.72
2023-04-02T15:41:44.879Z,8.54
2023-04-02T15:44:01.879Z,8.43
2023-04-02T15:46:18.903Z,8.35
2023-04-02T15:48:47.153Z,8.15
2023-04-02T15:51:05.729Z,8.13
2023-04-02T15:53:31.513Z,8.17
2023-04-02T15:55:45.807Z,8.17
2023-04-02T15:58:12.082Z,8.00
2023-04-02T16:00:43.467Z,7.99
2023-04-02T16:03:19.220Z,7.90
2023-04-02T16:05:40.014Z,7.72
2023-04-02T16:08:12.816Z,7.77
2023-04-02T16:10:41.097Z,7.75
2023-04-02T16:12:55.507Z,7.75
2023-04-02T16:15:17.155Z,7.64
2023-04-02T16:17:33.788Z,7.49
2023-04-02T16:19:45.108Z,7.53
2023-04-02T16:22:02.068Z,7.49
2023-04-02T16:24:14.163Z,7.39
2023-04-02T16:26:47.070Z,7.37
2023-04-02T16:29:05.879Z,7.49
2023-04-02T16:31:22.946Z,7.37
2023-04-02T16:33:45.644Z,7.37
2023-04-02T16:36:04.253Z,7.21
2023-04-02T16:38:23.528Z,7.17
2023-04-02T16:40:40.722Z,7.05
2023-04-02T16:42:59.579Z,7.01
2023-04-02T16:45:25.953Z,6.92
2023-04-02T16:47:53.437Z,6.92
2023-04-02T16:50:13.843Z,6.87
2023-04-02T16:52:33.964Z,6.78
2023-04-02T16:54:50.133Z,6.78
2023-04-02T16:57:21.750Z,6.77
2023-04-02T16:59:37.426Z,6.77
2023-04-02T17:01:55.175Z,6.84
2023-04-02T17:04:38.540Z,6.85
2023-04-02T17:06:58.129Z,6.78
2023-04-02T17:09:17.149Z,6.76
2023-04-02T17:11:27.536Z,6.70
2023-04-02T17:13:43.604Z,6.61
2023-04-02T17:15:56.858Z,6.71
2023-04-02T17:18:05.453Z,6.54
2023-04-02T17:20:20.538Z,6.44
2023-04-02T17:22:34.689Z,6.42
2023-04-02T17:24:47.474Z,6.42
2023-04-02T17:27:00.376Z,6.40
2023-04-02T17:29:12.751Z,6.33
2023-04-02T17:31:24.601Z,6.25
2023-04-02T17:33:32.880Z,6.17
2023-04-02T17:35:51.143Z,6.12
2023-04-02T17:38:11.681Z,6.10
2023-04-02T17:40:28.561Z,6.22
2023-04-02T17:42:51.088Z,6.07
2023-04-02T17:45:11.996Z,6.12
2023-04-02T17:47:23.956Z,6.07
2023-04-02T17:49:43.648Z,5.99
2023-04-02T17:51:58.408Z,5.99
2023-04-02T17:54:28.145Z,5.98
2023-04-02T17:56:55.206Z,5.86
2023-04-02T17:59:21.118Z,5.86
2023-04-02T18:01:37.381Z,5.89
2023-04-02T18:04:08.213Z,5.74
2023-04-02T18:06:21.903Z,5.69
2023-04-02T18:08:36.170Z,5.64
2023-04-02T18:10:56.128Z,5.63
2023-04-02T18:13:17.845Z,5.61
2023-04-02T18:16:01.557Z,5.54
2023-04-02T18:18:21.995Z,5.58
2023-04-02T18:20:37.778Z,5.64
2023-04-02T18:22:55.666Z,5.58
2023-04-02T18:25:28.656Z,5.51
2023-04-02T18:27:52.251Z,5.37
2023-04-02T18:30:12.319Z,5.36
2023-04-02T18:32:40.050Z,5.23
2023-04-02T18:35:03.073Z,5.27
2023-04-02T18:37:31.143Z,5.21
2023-04-02T18:39:48.648Z,5.25
2023-04-02T18:42:06.210Z,5.19
2023-04-02T18:44:40.279Z,5.18
2023-04-02T18:46:53.192Z,5.16
2023-04-02T18:49:07.424Z,4.96
2023-04-02T18:51:22.819Z,4.84
2023-04-02T18:54:01.961Z,4.81
2023-04-02T18:56:15.211Z,4.80
2023-04-02T18:58:30.075Z,4.74
2023-04-02T19:00:43.069Z,4.64
2023-04-02T19:02:55.936Z,4.57
2023-04-02T19:05:07.192Z,4.69
2023-04-02T19:07:19.720Z,4.63
2023-04-02T19:09:33.934Z,4.48
2023-04-02T19:11:41.973Z,4.51
2023-04-02T19:13:51.573Z,4.40
2023-04-02T19:16:23.927Z,4.35
2023-04-02T19:18:47.680Z,4.38
2023-04-02T19:21:00.771Z,4.37
2023-04-02T19:23:27.799Z,4.40
2023-04-02T19:25:52.864Z,4.40
2023-04-02T19:28:13.686Z,4.43
2023-04-02T19:30:44.185Z,4.52
2023-04-02T19:33:06.358Z,4.40
2023-04-02T19:35:24.357Z,4.35
2023-04-02T19:37:39.737Z,4.37
2023-04-02T19:40:07.969Z,4.25
2023-04-02T19:42:41.459Z,4.22
2023-04-02T19:44:52.908Z,4.11
2023-04-02T19:47:01.173Z,4.04
2023-04-02T19:49:16.995Z,3.89
2023-04-02T19:51:25.036Z,3.86
2023-04-02T19:53:33.439Z,3.91
2023-04-02T19:55:42.066Z,3.97
2023-04-02T19:57:51.309Z,4.03
2023-04-02T19:59:59.430Z,4.00
2023-04-02T20:02:10.615Z,3.93
2023-04-02T20:04:21.454Z,3.94
2023-04-02T20:06:32.331Z,3.92
2023-04-02T20:08:40.709Z,3.91
2023-04-02T20:10:49.278Z,3.84
2023-04-02T20:12:57.477Z,3.78
2023-04-02T20:15:06.399Z,3.75
2023-04-02T20:17:14.264Z,3.67
2023-04-02T20:19:25.126Z,3.64
2023-04-02T20:21:38.671Z,3.63
2023-04-02T20:23:46.893Z,3.57
2023-04-02T20:25:58.799Z,3.49
2023-04-02T20:28:07.748Z,3.45
2023-04-02T20:30:16.885Z,3.48
2023-04-02T20:32:25.419Z,3.56
2023-04-02T20:34:36.162Z,3.60
2023-04-02T20:36:44.680Z,3.62
2023-04-02T20:38:53.853Z,3.50
2023-04-02T20:41:04.498Z,3.52
2023-04-02T20:43:13.182Z,3.55
2023-04-02T20:45:21.412Z,3.55
2023-04-02T20:47:29.323Z,3.43
2023-04-02T20:49:58.345Z,3.40
2023-04-02T20:52:10.087Z,3.44
2023-04-02T20:54:18.039Z,3.46
2023-04-02T20:56:27.047Z,3.47
2023-04-02T20:58:35.609Z,3.58
2023-04-02T21:00:43.837Z,3.63
2023-04-02T21:02:51.748Z,3.69
2023-04-02T21:05:02.469Z,3.75
2023-04-02T21:07:10.849Z,3.84
2023-04-02T21:09:21.569Z,3.66
2023-04-02T21:11:29.526Z,3.41
2023-04-02T21:13:39.214Z,3.42
2023-04-02T21:15:47.201Z,3.50
2023-04-02T21:17:55.586Z,3.46
2023-04-02T21:20:07.184Z,3.28
2023-04-02T21:22:15.082Z,3.29
2023-04-02T21:24:23.033Z,3.33
2023-04-02T21:26:34.626Z,3.42
2023-04-02T21:28:42.893Z,3.48
2023-04-02T21:30:50.765Z,3.51
2023-04-02T21:32:58.793Z,3.61
2023-04-02T21:35:11.726Z,3.35
2023-04-02T21:37:19.599Z,3.56
2023-04-02T21:39:27.459Z,3.55
2023-04-02T21:41:38.490Z,3.55
2023-04-02T21:43:48.585Z,3.36
2023-04-02T21:46:02.087Z,3.44
2023-04-02T21:48:10.312Z,3.33
2023-04-02T21:50:20.993Z,3.38
2023-04-02T21:52:28.863Z,3.34
2023-04-02T21:54:36.726Z,3.31
2023-04-02T21:56:45.909Z,3.35
2023-04-02T21:58:55.204Z,3.38
2023-04-02T22:01:07.091Z,3.43
2023-04-02T22:03:25.146Z,3.37
2023-04-02T22:05:41.894Z,3.22
2023-04-02T22:07:49.707Z,3.37
2023-04-02T22:09:57.595Z,3.19
2023-04-02T22:12:08.195Z,3.11
2023-04-02T22:14:16.662Z,3.18
2023-04-02T22:16:27.449Z,3.23
2023-04-02T22:18:35.345Z,3.18
2023-04-02T22:20:45.846Z,3.08
2023-04-02T22:22:53.843Z,3.14
2023-04-02T22:25:03.305Z,3.02
2023-04-02T22:27:11.255Z,3.08
2023-04-02T22:29:19.288Z,3.11
2023-04-02T22:31:29.337Z,3.12
2023-04-02T22:33:40.336Z,2.99
2023-04-02T22:35:53.759Z,3.03
2023-04-02T22:38:01.813Z,3.04
2023-04-02T22:40:13.102Z,3.03
2023-04-02T22:42:21.408Z,3.08
2023-04-02T22:44:29.383Z,3.05
2023-04-02T22:46:37.449Z,2.99
2023-04-02T22:48:46.406Z,3.02
2023-04-02T22:50:57.109Z,2.89
2023-04-02T22:53:05.057Z,2.96
2023-04-02T22:55:15.574Z,3.02
2023-04-02T22:57:23.504Z,2.97
2023-04-02T22:59:31.389Z,2.97
2023-04-02T23:01:39.788Z,2.92
2023-04-02T23:03:47.888Z,2.84
2023-04-02T23:06:05.057Z,2.84
2023-04-02T23:08:12.956Z,2.88
2023-04-02T23:10:21.107Z,2.82
2023-04-02T23:12:29.184Z,2.83
2023-04-02T23:14:37.419Z,2.75
2023-04-02T23:16:45.388Z,2.72
2023-04-02T23:18:53.692Z,2.76
2023-04-02T23:21:04.876Z,2.75
2023-04-02T23:23:12.779Z,2.64
2023-04-02T23:25:21.333Z,2.63
2023-04-02T23:27:29.297Z,2.66
2023-04-02T23:29:37.231Z,2.68
2023-04-02T23:31:45.230Z,2.71
2023-04-02T23:33:53.570Z,2.66
2023-04-02T23:36:09.730Z,2.75
2023-04-02T23:38:17.745Z,2.65
2023-04-02T23:40:26.344Z,2.52
2023-04-02T23:42:34.303Z,2.44
2023-04-02T23:44:42.251Z,2.39
2023-04-02T23:46:50.301Z,2.46
2023-04-02T23:48:58.668Z,2.39
2023-04-02T23:51:09.941Z,2.45
2023-04-02T23:53:18.864Z,2.40
2023-04-02T23:55:29.499Z,2.30
2023-04-02T23:57:38.446Z,2.23
2023-04-02T23:59:47.077Z,2.28
